sensor_id;sensor_type;location;lat;lon;timestamp;P1;durP1;ratioP1;P2;durP2;ratioP2
21202;SDS011;10759;51.982;9.232;2023-07-31T00:01:02;2.17;;;1.77;;
21202;SDS011;10759;51.982;9.232;2023-07-31T00:03:30;1.73;;;1.13;;
21202;SDS011;10759;51.982;9.232;2023-07-31T00:05:58;2.67;;;1.50;;
21202;SDS011;10759;51.982;9.232;2023-07-31T00:08:26;2.38;;;1.40;;
21202;SDS011;10759;51.982;9.232;2023-07-31T00:10:54;1.75;;;1.52;;
21202;SDS011;10759;51.982;9.232;2023-07-31T00:13:23;1.58;;;1.45;;
21202;SDS011;10759;51.982;9.232;2023-07-31T00:15:51;2.88;;;1.10;;
21202;SDS011;10759;51.982;9.232;2023-07-31T00:18:19;1.88;;;1.23;;
21202;SDS011;10759;51.982;9.232;2023-07-31T00:20:47;2.35;;;1.20;;
21202;SDS011;10759;51.982;9.232;2023-07-31T00:23:15;0.88;;;0.88;;
21202;SDS011;10759;51.982;9.232;2023-07-31T00:25:43;1.48;;;1.10;;
21202;SDS011;10759;51.982;9.232;2023-07-31T00:28:11;1.30;;;1.20;;
21202;SDS011;10759;51.982;9.232;2023-07-31T00:30:41;1.13;;;1.00;;
21202;SDS011;10759;51.982;9.232;2023-07-31T00:33:11;1.42;;;1.10;;
21202;SDS011;10759;51.982;9.232;2023-07-31T00:35:39;1.73;;;1.10;;
21202;SDS011;10759;51.982;9.232;2023-07-31T00:38:09;4.65;;;1.50;;
21202;SDS011;10759;51.982;9.232;2023-07-31T00:40:38;1.73;;;1.30;;
21202;SDS011;10759;51.982;9.232;2023-07-31T00:43:08;1.30;;;1.20;;
21202;SDS011;10759;51.982;9.232;2023-07-31T00:45:36;1.40;;;1.30;;
21202;SDS011;10759;51.982;9.232;2023-07-31T00:48:06;1.63;;;1.20;;
21202;SDS011;10759;51.982;9.232;2023-07-31T00:50:35;1.05;;;0.95;;
21202;SDS011;10759;51.982;9.232;2023-07-31T00:53:03;1.30;;;1.20;;
21202;SDS011;10759;51.982;9.232;2023-07-31T00:55:34;1.38;;;1.20;;
21202;SDS011;10759;51.982;9.232;2023-07-31T00:58:05;1.50;;;1.35;;
21202;SDS011;10759;51.982;9.232;2023-07-31T01:00:33;1.13;;;1.10;;
21202;SDS011;10759;51.982;9.232;2023-07-31T01:03:01;1.88;;;1.30;;
21202;SDS011;10759;51.982;9.232;2023-07-31T01:05:32;2.30;;;1.35;;
21202;SDS011;10759;51.982;9.232;2023-07-31T01:08:25;1.58;;;1.17;;
21202;SDS011;10759;51.982;9.232;2023-07-31T01:11:05;1.10;;;1.00;;
21202;SDS011;10759;51.982;9.232;2023-07-31T01:13:39;1.30;;;1.17;;
21202;SDS011;10759;51.982;9.232;2023-07-31T01:16:10;1.23;;;1.13;;
21202;SDS011;10759;51.982;9.232;2023-07-31T01:18:40;1.10;;;1.10;;
21202;SDS011;10759;51.982;9.232;2023-07-31T01:21:28;1.40;;;1.30;;
21202;SDS011;10759;51.982;9.232;2023-07-31T01:26:58;1.48;;;1.38;;
21202;SDS011;10759;51.982;9.232;2023-07-31T01:29:37;1.75;;;1.38;;
21202;SDS011;10759;51.982;9.232;2023-07-31T01:32:11;1.75;;;1.23;;
21202;SDS011;10759;51.982;9.232;2023-07-31T01:34:41;1.40;;;1.30;;
21202;SDS011;10759;51.982;9.232;2023-07-31T01:37:09;1.30;;;1.20;;
21202;SDS011;10759;51.982;9.232;2023-07-31T01:39:37;1.42;;;1.33;;
21202;SDS011;10759;51.982;9.232;2023-07-31T01:42:08;3.03;;;1.45;;
21202;SDS011;10759;51.982;9.232;2023-07-31T01:44:36;1.48;;;1.33;;
21202;SDS011;10759;51.982;9.232;2023-07-31T01:47:04;2.42;;;1.38;;
21202;SDS011;10759;51.982;9.232;2023-07-31T01:49:33;1.63;;;1.40;;
21202;SDS011;10759;51.982;9.232;2023-07-31T01:52:01;0.80;;;0.80;;
21202;SDS011;10759;51.982;9.232;2023-07-31T01:54:29;1.30;;;1.20;;
21202;SDS011;10759;51.982;9.232;2023-07-31T01:56:58;2.45;;;1.10;;
21202;SDS011;10759;51.982;9.232;2023-07-31T01:59:27;0.90;;;0.90;;
21202;SDS011;10759;51.982;9.232;2023-07-31T02:01:56;1.30;;;1.20;;
21202;SDS011;10759;51.982;9.232;2023-07-31T02:04:29;1.77;;;0.93;;
21202;SDS011;10759;51.982;9.232;2023-07-31T02:06:57;1.25;;;1.02;;
21202;SDS011;10759;51.982;9.232;2023-07-31T02:09:25;1.08;;;1.00;;
21202;SDS011;10759;51.982;9.232;2023-07-31T02:11:54;1.10;;;1.10;;
21202;SDS011;10759;51.982;9.232;2023-07-31T02:14:22;1.20;;;1.20;;
21202;SDS011;10759;51.982;9.232;2023-07-31T02:16:52;1.30;;;1.20;;
21202;SDS011;10759;51.982;9.232;2023-07-31T02:19:20;1.63;;;1.45;;
21202;SDS011;10759;51.982;9.232;2023-07-31T02:21:54;1.20;;;1.20;;
21202;SDS011;10759;51.982;9.232;2023-07-31T02:24:22;1.20;;;1.10;;
21202;SDS011;10759;51.982;9.232;2023-07-31T02:26:50;2.03;;;1.33;;
21202;SDS011;10759;51.982;9.232;2023-07-31T02:29:21;1.70;;;1.33;;
21202;SDS011;10759;51.982;9.232;2023-07-31T02:31:48;1.17;;;1.00;;
21202;SDS011;10759;51.982;9.232;2023-07-31T02:34:21;1.50;;;1.40;;
21202;SDS011;10759;51.982;9.232;2023-07-31T02:36:49;2.42;;;1.20;;
21202;SDS011;10759;51.982;9.232;2023-07-31T02:39:19;1.17;;;1.08;;
21202;SDS011;10759;51.982;9.232;2023-07-31T02:41:47;1.30;;;1.20;;
21202;SDS011;10759;51.982;9.232;2023-07-31T02:44:16;1.27;;;1.20;;
21202;SDS011;10759;51.982;9.232;2023-07-31T02:46:47;2.25;;;1.83;;
21202;SDS011;10759;51.982;9.232;2023-07-31T02:49:15;1.67;;;1.50;;
21202;SDS011;10759;51.982;9.232;2023-07-31T02:51:45;1.20;;;1.10;;
21202;SDS011;10759;51.982;9.232;2023-07-31T02:54:13;1.30;;;1.13;;
21202;SDS011;10759;51.982;9.232;2023-07-31T02:56:41;2.13;;;1.20;;
21202;SDS011;10759;51.982;9.232;2023-07-31T02:59:09;3.47;;;1.17;;
21202;SDS011;10759;51.982;9.232;2023-07-31T03:01:37;3.15;;;1.30;;
21202;SDS011;10759;51.982;9.232;2023-07-31T03:04:05;1.75;;;1.50;;
21202;SDS011;10759;51.982;9.232;2023-07-31T03:06:33;1.65;;;1.45;;
21202;SDS011;10759;51.982;9.232;2023-07-31T03:09:02;1.85;;;1.35;;
21202;SDS011;10759;51.982;9.232;2023-07-31T03:11:30;32.03;;;21.80;;
21202;SDS011;10759;51.982;9.232;2023-07-31T03:14:00;2.78;;;1.90;;
21202;SDS011;10759;51.982;9.232;2023-07-31T03:16:28;2.35;;;1.45;;
21202;SDS011;10759;51.982;9.232;2023-07-31T03:19:03;4.00;;;3.70;;
21202;SDS011;10759;51.982;9.232;2023-07-31T03:21:34;1.77;;;1.67;;
21202;SDS011;10759;51.982;9.232;2023-07-31T03:24:03;1.95;;;1.42;;
21202;SDS011;10759;51.982;9.232;2023-07-31T03:26:32;1.95;;;1.85;;
21202;SDS011;10759;51.982;9.232;2023-07-31T03:29:00;2.15;;;1.88;;
21202;SDS011;10759;51.982;9.232;2023-07-31T03:31:33;2.08;;;1.35;;
21202;SDS011;10759;51.982;9.232;2023-07-31T03:34:02;4.38;;;1.65;;
21202;SDS011;10759;51.982;9.232;2023-07-31T03:36:30;1.75;;;1.65;;
21202;SDS011;10759;51.982;9.232;2023-07-31T03:39:13;3.47;;;1.48;;
21202;SDS011;10759;51.982;9.232;2023-07-31T03:41:41;1.23;;;1.13;;
21202;SDS011;10759;51.982;9.232;2023-07-31T03:44:11;1.00;;;1.00;;
21202;SDS011;10759;51.982;9.232;2023-07-31T03:46:39;0.88;;;0.88;;
21202;SDS011;10759;51.982;9.232;2023-07-31T03:49:10;1.10;;;1.00;;
21202;SDS011;10759;51.982;9.232;2023-07-31T03:51:38;1.20;;;1.10;;
21202;SDS011;10759;51.982;9.232;2023-07-31T03:54:06;1.10;;;1.10;;
21202;SDS011;10759;51.982;9.232;2023-07-31T03:56:49;1.37;;;1.20;;
21202;SDS011;10759;51.982;9.232;2023-07-31T03:59:17;1.55;;;1.45;;
21202;SDS011;10759;51.982;9.232;2023-07-31T04:01:45;2.20;;;2.00;;
21202;SDS011;10759;51.982;9.232;2023-07-31T04:04:13;4.18;;;2.97;;
21202;SDS011;10759;51.982;9.232;2023-07-31T04:06:41;4.13;;;3.53;;
21202;SDS011;10759;51.982;9.232;2023-07-31T04:09:09;5.07;;;3.95;;
21202;SDS011;10759;51.982;9.232;2023-07-31T04:11:37;6.25;;;4.70;;
21202;SDS011;10759;51.982;9.232;2023-07-31T04:14:06;6.60;;;5.90;;
21202;SDS011;10759;51.982;9.232;2023-07-31T04:16:38;6.88;;;6.13;;
21202;SDS011;10759;51.982;9.232;2023-07-31T04:19:06;8.65;;;7.38;;
21202;SDS011;10759;51.982;9.232;2023-07-31T04:21:38;8.70;;;6.82;;
21202;SDS011;10759;51.982;9.232;2023-07-31T04:24:06;9.98;;;7.28;;
21202;SDS011;10759;51.982;9.232;2023-07-31T04:26:34;8.95;;;8.00;;
21202;SDS011;10759;51.982;9.232;2023-07-31T04:29:02;11.32;;;8.00;;
21202;SDS011;10759;51.982;9.232;2023-07-31T04:31:33;9.30;;;8.23;;
21202;SDS011;10759;51.982;9.232;2023-07-31T04:34:05;10.93;;;8.60;;
21202;SDS011;10759;51.982;9.232;2023-07-31T04:36:35;10.98;;;9.18;;
21202;SDS011;10759;51.982;9.232;2023-07-31T04:39:04;13.75;;;8.68;;
21202;SDS011;10759;51.982;9.232;2023-07-31T04:41:31;11.45;;;8.35;;
21202;SDS011;10759;51.982;9.232;2023-07-31T04:43:59;11.18;;;9.98;;
21202;SDS011;10759;51.982;9.232;2023-07-31T04:46:27;11.27;;;8.93;;
21202;SDS011;10759;51.982;9.232;2023-07-31T04:48:57;11.27;;;8.75;;
21202;SDS011;10759;51.982;9.232;2023-07-31T04:51:25;12.57;;;9.77;;
21202;SDS011;10759;51.982;9.232;2023-07-31T04:53:53;14.40;;;8.75;;
21202;SDS011;10759;51.982;9.232;2023-07-31T04:56:21;12.27;;;9.38;;
21202;SDS011;10759;51.982;9.232;2023-07-31T04:58:49;10.77;;;8.40;;
21202;SDS011;10759;51.982;9.232;2023-07-31T05:01:17;11.23;;;8.25;;
21202;SDS011;10759;51.982;9.232;2023-07-31T05:03:45;10.07;;;8.02;;
21202;SDS011;10759;51.982;9.232;2023-07-31T05:06:15;9.18;;;8.23;;
21202;SDS011;10759;51.982;9.232;2023-07-31T05:08:43;11.38;;;7.22;;
21202;SDS011;10759;51.982;9.232;2023-07-31T05:11:11;7.55;;;6.85;;
21202;SDS011;10759;51.982;9.232;2023-07-31T05:13:48;8.30;;;6.93;;
21202;SDS011;10759;51.982;9.232;2023-07-31T05:16:16;10.25;;;6.35;;
21202;SDS011;10759;51.982;9.232;2023-07-31T05:18:44;9.18;;;6.75;;
21202;SDS011;10759;51.982;9.232;2023-07-31T05:21:12;6.65;;;5.82;;
21202;SDS011;10759;51.982;9.232;2023-07-31T05:23:41;6.90;;;6.25;;
21202;SDS011;10759;51.982;9.232;2023-07-31T05:26:10;7.55;;;6.80;;
21202;SDS011;10759;51.982;9.232;2023-07-31T05:28:40;10.52;;;8.98;;
21202;SDS011;10759;51.982;9.232;2023-07-31T05:31:10;10.82;;;8.70;;
21202;SDS011;10759;51.982;9.232;2023-07-31T05:33:41;13.40;;;8.85;;
21202;SDS011;10759;51.982;9.232;2023-07-31T05:36:09;10.60;;;9.50;;
21202;SDS011;10759;51.982;9.232;2023-07-31T05:38:39;11.18;;;9.63;;
21202;SDS011;10759;51.982;9.232;2023-07-31T05:41:10;11.23;;;10.05;;
21202;SDS011;10759;51.982;9.232;2023-07-31T05:43:39;16.45;;;10.88;;
21202;SDS011;10759;51.982;9.232;2023-07-31T05:46:06;14.60;;;9.95;;
21202;SDS011;10759;51.982;9.232;2023-07-31T05:48:35;12.02;;;10.00;;
21202;SDS011;10759;51.982;9.232;2023-07-31T05:51:06;11.95;;;10.68;;
21202;SDS011;10759;51.982;9.232;2023-07-31T05:53:34;14.23;;;10.45;;
21202;SDS011;10759;51.982;9.232;2023-07-31T05:56:07;15.80;;;11.43;;
21202;SDS011;10759;51.982;9.232;2023-07-31T05:58:39;17.25;;;9.98;;
21202;SDS011;10759;51.982;9.232;2023-07-31T06:01:07;13.77;;;9.60;;
21202;SDS011;10759;51.982;9.232;2023-07-31T06:03:39;16.52;;;9.43;;
21202;SDS011;10759;51.982;9.232;2023-07-31T06:06:07;13.77;;;9.68;;
21202;SDS011;10759;51.982;9.232;2023-07-31T06:08:35;9.90;;;8.95;;
21202;SDS011;10759;51.982;9.232;2023-07-31T06:11:08;12.68;;;8.77;;
21202;SDS011;10759;51.982;9.232;2023-07-31T06:13:36;10.88;;;9.40;;
21202;SDS011;10759;51.982;9.232;2023-07-31T06:16:06;9.32;;;8.18;;
21202;SDS011;10759;51.982;9.232;2023-07-31T06:18:35;10.48;;;8.20;;
21202;SDS011;10759;51.982;9.232;2023-07-31T06:21:06;8.73;;;7.65;;
21202;SDS011;10759;51.982;9.232;2023-07-31T06:23:38;10.75;;;8.27;;
21202;SDS011;10759;51.982;9.232;2023-07-31T06:26:06;10.95;;;7.18;;
21202;SDS011;10759;51.982;9.232;2023-07-31T06:28:34;10.00;;;7.60;;
21202;SDS011;10759;51.982;9.232;2023-07-31T06:31:02;13.35;;;7.60;;
21202;SDS011;10759;51.982;9.232;2023-07-31T06:33:31;9.88;;;7.88;;
21202;SDS011;10759;51.982;9.232;2023-07-31T06:36:00;11.15;;;7.93;;
21202;SDS011;10759;51.982;9.232;2023-07-31T06:38:27;10.40;;;7.50;;
21202;SDS011;10759;51.982;9.232;2023-07-31T06:40:56;9.75;;;7.45;;
21202;SDS011;10759;51.982;9.232;2023-07-31T06:43:23;10.48;;;7.30;;
21202;SDS011;10759;51.982;9.232;2023-07-31T06:45:57;11.35;;;7.28;;
21202;SDS011;10759;51.982;9.232;2023-07-31T06:48:27;11.10;;;8.10;;
21202;SDS011;10759;51.982;9.232;2023-07-31T06:50:56;11.80;;;7.68;;
21202;SDS011;10759;51.982;9.232;2023-07-31T06:53:24;12.20;;;7.25;;
21202;SDS011;10759;51.982;9.232;2023-07-31T06:56:02;11.55;;;7.60;;
21202;SDS011;10759;51.982;9.232;2023-07-31T06:58:33;10.43;;;6.82;;
21202;SDS011;10759;51.982;9.232;2023-07-31T07:05:00;11.38;;;7.22;;
21202;SDS011;10759;51.982;9.232;2023-07-31T07:07:30;9.88;;;7.80;;
21202;SDS011;10759;51.982;9.232;2023-07-31T07:09:58;10.60;;;7.50;;
21202;SDS011;10759;51.982;9.232;2023-07-31T07:12:27;11.00;;;7.18;;
21202;SDS011;10759;51.982;9.232;2023-07-31T07:14:58;10.48;;;7.20;;
21202;SDS011;10759;51.982;9.232;2023-07-31T07:17:27;10.05;;;7.00;;
21202;SDS011;10759;51.982;9.232;2023-07-31T07:24:00;13.13;;;8.40;;
21202;SDS011;10759;51.982;9.232;2023-07-31T07:26:30;12.53;;;8.20;;
21202;SDS011;10759;51.982;9.232;2023-07-31T07:29:01;9.05;;;7.70;;
21202;SDS011;10759;51.982;9.232;2023-07-31T07:31:29;9.32;;;7.60;;
21202;SDS011;10759;51.982;9.232;2023-07-31T07:33:57;9.77;;;7.40;;
21202;SDS011;10759;51.982;9.232;2023-07-31T07:36:27;8.40;;;6.72;;
21202;SDS011;10759;51.982;9.232;2023-07-31T07:41:25;9.45;;;6.45;;
21202;SDS011;10759;51.982;9.232;2023-07-31T07:43:53;8.30;;;6.95;;
21202;SDS011;10759;51.982;9.232;2023-07-31T07:46:21;7.50;;;6.07;;
21202;SDS011;10759;51.982;9.232;2023-07-31T07:48:52;8.82;;;6.13;;
21202;SDS011;10759;51.982;9.232;2023-07-31T07:51:20;6.82;;;6.18;;
21202;SDS011;10759;51.982;9.232;2023-07-31T07:53:50;7.72;;;6.50;;
21202;SDS011;10759;51.982;9.232;2023-07-31T07:56:20;8.52;;;6.90;;
21202;SDS011;10759;51.982;9.232;2023-07-31T07:58:52;9.77;;;6.70;;
21202;SDS011;10759;51.982;9.232;2023-07-31T08:01:20;8.25;;;5.78;;
21202;SDS011;10759;51.982;9.232;2023-07-31T08:03:48;6.68;;;4.60;;
21202;SDS011;10759;51.982;9.232;2023-07-31T08:06:17;8.18;;;5.68;;
21202;SDS011;10759;51.982;9.232;2023-07-31T08:08:45;6.88;;;4.78;;
21202;SDS011;10759;51.982;9.232;2023-07-31T08:11:14;5.75;;;4.78;;
21202;SDS011;10759;51.982;9.232;2023-07-31T08:13:42;6.07;;;4.32;;
21202;SDS011;10759;51.982;9.232;2023-07-31T08:18:41;4.07;;;3.50;;
21202;SDS011;10759;51.982;9.232;2023-07-31T08:21:10;3.97;;;3.58;;
21202;SDS011;10759;51.982;9.232;2023-07-31T08:23:41;4.03;;;3.45;;
21202;SDS011;10759;51.982;9.232;2023-07-31T08:26:14;3.42;;;3.00;;
21202;SDS011;10759;51.982;9.232;2023-07-31T08:28:42;4.25;;;3.55;;
21202;SDS011;10759;51.982;9.232;2023-07-31T08:31:11;3.80;;;3.10;;
21202;SDS011;10759;51.982;9.232;2023-07-31T08:33:41;2.97;;;2.30;;
21202;SDS011;10759;51.982;9.232;2023-07-31T08:36:12;2.47;;;2.00;;
21202;SDS011;10759;51.982;9.232;2023-07-31T08:38:41;2.75;;;2.45;;
21202;SDS011;10759;51.982;9.232;2023-07-31T08:41:09;3.30;;;3.00;;
21202;SDS011;10759;51.982;9.232;2023-07-31T08:43:37;3.10;;;2.83;;
21202;SDS011;10759;51.982;9.232;2023-07-31T08:46:06;4.00;;;3.70;;
21202;SDS011;10759;51.982;9.232;2023-07-31T08:48:35;4.63;;;4.20;;
21202;SDS011;10759;51.982;9.232;2023-07-31T08:51:06;5.63;;;3.78;;
21202;SDS011;10759;51.982;9.232;2023-07-31T08:53:35;7.28;;;5.07;;
21202;SDS011;10759;51.982;9.232;2023-07-31T08:56:03;6.45;;;5.22;;
21202;SDS011;10759;51.982;9.232;2023-07-31T08:58:33;6.63;;;5.50;;
21202;SDS011;10759;51.982;9.232;2023-07-31T09:01:04;7.47;;;5.20;;
21202;SDS011;10759;51.982;9.232;2023-07-31T09:03:33;5.90;;;5.40;;
21202;SDS011;10759;51.982;9.232;2023-07-31T09:06:03;5.68;;;5.13;;
21202;SDS011;10759;51.982;9.232;2023-07-31T09:11:05;6.50;;;5.90;;
21202;SDS011;10759;51.982;9.232;2023-07-31T09:13:33;5.70;;;5.18;;
21202;SDS011;10759;51.982;9.232;2023-07-31T09:23:45;6.35;;;5.75;;
21202;SDS011;10759;51.982;9.232;2023-07-31T09:26:28;6.43;;;5.93;;
21202;SDS011;10759;51.982;9.232;2023-07-31T09:28:57;6.07;;;5.28;;
21202;SDS011;10759;51.982;9.232;2023-07-31T09:31:31;5.85;;;5.22;;
21202;SDS011;10759;51.982;9.232;2023-07-31T09:34:07;6.63;;;6.03;;
21202;SDS011;10759;51.982;9.232;2023-07-31T09:36:41;6.68;;;6.03;;
21202;SDS011;10759;51.982;9.232;2023-07-31T09:39:15;6.60;;;5.75;;
21202;SDS011;10759;51.982;9.232;2023-07-31T09:41:47;6.70;;;5.18;;
21202;SDS011;10759;51.982;9.232;2023-07-31T09:44:40;5.72;;;5.18;;
21202;SDS011;10759;51.982;9.232;2023-07-31T09:47:20;6.30;;;5.18;;
21202;SDS011;10759;51.982;9.232;2023-07-31T09:49:54;6.07;;;4.95;;
21202;SDS011;10759;51.982;9.232;2023-07-31T09:52:24;6.45;;;5.78;;
21202;SDS011;10759;51.982;9.232;2023-07-31T09:55:00;5.45;;;4.95;;
21202;SDS011;10759;51.982;9.232;2023-07-31T09:57:29;7.32;;;6.03;;
21202;SDS011;10759;51.982;9.232;2023-07-31T09:59:59;6.70;;;6.05;;
21202;SDS011;10759;51.982;9.232;2023-07-31T10:02:37;6.82;;;6.22;;
21202;SDS011;10759;51.982;9.232;2023-07-31T10:05:06;6.45;;;5.85;;
21202;SDS011;10759;51.982;9.232;2023-07-31T10:07:49;6.32;;;5.70;;
21202;SDS011;10759;51.982;9.232;2023-07-31T10:10:22;5.90;;;5.30;;
21202;SDS011;10759;51.982;9.232;2023-07-31T10:12:52;6.00;;;5.40;;
21202;SDS011;10759;51.982;9.232;2023-07-31T10:15:21;5.90;;;5.40;;
21202;SDS011;10759;51.982;9.232;2023-07-31T10:17:51;6.38;;;5.43;;
21202;SDS011;10759;51.982;9.232;2023-07-31T10:24:22;7.07;;;4.65;;
21202;SDS011;10759;51.982;9.232;2023-07-31T10:26:53;5.95;;;5.35;;
21202;SDS011;10759;51.982;9.232;2023-07-31T10:29:28;6.30;;;5.55;;
21202;SDS011;10759;51.982;9.232;2023-07-31T10:31:57;8.60;;;5.13;;
21202;SDS011;10759;51.982;9.232;2023-07-31T10:34:29;5.03;;;4.53;;
21202;SDS011;10759;51.982;9.232;2023-07-31T10:39:59;5.00;;;4.60;;
21202;SDS011;10759;51.982;9.232;2023-07-31T10:42:31;5.70;;;4.65;;
21202;SDS011;10759;51.982;9.232;2023-07-31T10:45:03;5.20;;;4.68;;
21202;SDS011;10759;51.982;9.232;2023-07-31T10:47:36;4.70;;;4.30;;
21202;SDS011;10759;51.982;9.232;2023-07-31T10:50:18;4.68;;;4.18;;
21202;SDS011;10759;51.982;9.232;2023-07-31T10:52:48;4.75;;;4.30;;
21202;SDS011;10759;51.982;9.232;2023-07-31T10:55:27;5.82;;;3.75;;
21202;SDS011;10759;51.982;9.232;2023-07-31T10:58:05;4.47;;;3.70;;
21202;SDS011;10759;51.982;9.232;2023-07-31T11:00:36;4.72;;;4.32;;
21202;SDS011;10759;51.982;9.232;2023-07-31T11:03:06;4.60;;;4.13;;
21202;SDS011;10759;51.982;9.232;2023-07-31T11:05:46;6.43;;;5.43;;
21202;SDS011;10759;51.982;9.232;2023-07-31T11:08:19;6.97;;;4.70;;
21202;SDS011;10759;51.982;9.232;2023-07-31T11:10:50;4.88;;;4.45;;
21202;SDS011;10759;51.982;9.232;2023-07-31T11:22:04;4.25;;;3.85;;
21202;SDS011;10759;51.982;9.232;2023-07-31T11:24:33;4.00;;;3.70;;
21202;SDS011;10759;51.982;9.232;2023-07-31T11:27:07;3.90;;;3.50;;
21202;SDS011;10759;51.982;9.232;2023-07-31T11:29:35;3.13;;;2.70;;
21202;SDS011;10759;51.982;9.232;2023-07-31T11:32:04;4.25;;;2.83;;
21202;SDS011;10759;51.982;9.232;2023-07-31T11:34:50;3.03;;;2.83;;
21202;SDS011;10759;51.982;9.232;2023-07-31T11:37:20;3.83;;;3.05;;
21202;SDS011;10759;51.982;9.232;2023-07-31T11:39:59;3.05;;;2.75;;
21202;SDS011;10759;51.982;9.232;2023-07-31T11:42:38;7.32;;;3.95;;
21202;SDS011;10759;51.982;9.232;2023-07-31T11:45:07;3.53;;;3.22;;
21202;SDS011;10759;51.982;9.232;2023-07-31T11:47:37;3.10;;;2.83;;
21202;SDS011;10759;51.982;9.232;2023-07-31T11:50:06;3.80;;;3.40;;
21202;SDS011;10759;51.982;9.232;2023-07-31T11:52:40;3.63;;;2.72;;
21202;SDS011;10759;51.982;9.232;2023-07-31T11:55:12;3.25;;;2.45;;
21202;SDS011;10759;51.982;9.232;2023-07-31T11:57:42;3.75;;;2.90;;
21202;SDS011;10759;51.982;9.232;2023-07-31T12:00:12;2.72;;;2.53;;
21202;SDS011;10759;51.982;9.232;2023-07-31T12:02:41;2.13;;;1.93;;
21202;SDS011;10759;51.982;9.232;2023-07-31T12:05:11;2.30;;;1.77;;
21202;SDS011;10759;51.982;9.232;2023-07-31T12:07:48;1.60;;;1.50;;
21202;SDS011;10759;51.982;9.232;2023-07-31T12:10:24;1.40;;;1.30;;
21202;SDS011;10759;51.982;9.232;2023-07-31T12:12:58;1.60;;;1.50;;
21202;SDS011;10759;51.982;9.232;2023-07-31T12:15:36;2.10;;;1.45;;
21202;SDS011;10759;51.982;9.232;2023-07-31T12:18:06;1.75;;;1.40;;
21202;SDS011;10759;51.982;9.232;2023-07-31T12:20:40;1.50;;;1.40;;
21202;SDS011;10759;51.982;9.232;2023-07-31T12:31:13;1.70;;;1.60;;
21202;SDS011;10759;51.982;9.232;2023-07-31T12:33:43;1.90;;;1.80;;
21202;SDS011;10759;51.982;9.232;2023-07-31T12:36:13;1.00;;;1.00;;
21202;SDS011;10759;51.982;9.232;2023-07-31T12:38:44;1.35;;;1.30;;
21202;SDS011;10759;51.982;9.232;2023-07-31T12:41:12;1.45;;;1.30;;
21202;SDS011;10759;51.982;9.232;2023-07-31T12:43:42;1.50;;;1.40;;
21202;SDS011;10759;51.982;9.232;2023-07-31T12:46:13;1.63;;;1.30;;
21202;SDS011;10759;51.982;9.232;2023-07-31T12:48:41;2.65;;;1.52;;
21202;SDS011;10759;51.982;9.232;2023-07-31T12:51:09;1.20;;;1.10;;
21202;SDS011;10759;51.982;9.232;2023-07-31T12:53:38;1.10;;;1.00;;
21202;SDS011;10759;51.982;9.232;2023-07-31T12:56:06;1.85;;;1.20;;
21202;SDS011;10759;51.982;9.232;2023-07-31T12:58:34;1.20;;;1.10;;
21202;SDS011;10759;51.982;9.232;2023-07-31T13:01:02;1.95;;;1.08;;
21202;SDS011;10759;51.982;9.232;2023-07-31T13:03:32;1.60;;;0.88;;
21202;SDS011;10759;51.982;9.232;2023-07-31T13:06:01;1.20;;;1.05;;
21202;SDS011;10759;51.982;9.232;2023-07-31T13:08:29;0.90;;;0.90;;
21202;SDS011;10759;51.982;9.232;2023-07-31T13:10:57;0.95;;;0.90;;
21202;SDS011;10759;51.982;9.232;2023-07-31T13:13:26;1.00;;;1.00;;
21202;SDS011;10759;51.982;9.232;2023-07-31T13:15:56;1.98;;;1.30;;
21202;SDS011;10759;51.982;9.232;2023-07-31T13:18:24;1.00;;;1.00;;
21202;SDS011;10759;51.982;9.232;2023-07-31T13:20:54;0.80;;;0.80;;
21202;SDS011;10759;51.982;9.232;2023-07-31T13:23:22;0.90;;;0.82;;
21202;SDS011;10759;51.982;9.232;2023-07-31T13:25:50;1.77;;;1.00;;
21202;SDS011;10759;51.982;9.232;2023-07-31T13:28:19;1.33;;;0.93;;
21202;SDS011;10759;51.982;9.232;2023-07-31T13:30:47;1.15;;;1.02;;
21202;SDS011;10759;51.982;9.232;2023-07-31T13:33:15;1.77;;;1.10;;
21202;SDS011;10759;51.982;9.232;2023-07-31T13:36:02;1.30;;;1.20;;
21202;SDS011;10759;51.982;9.232;2023-07-31T13:38:30;1.15;;;1.02;;
21202;SDS011;10759;51.982;9.232;2023-07-31T13:40:59;1.33;;;1.08;;
21202;SDS011;10759;51.982;9.232;2023-07-31T13:43:27;1.25;;;1.17;;
21202;SDS011;10759;51.982;9.232;2023-07-31T13:45:55;1.13;;;1.00;;
21202;SDS011;10759;51.982;9.232;2023-07-31T13:48:24;1.33;;;1.20;;
21202;SDS011;10759;51.982;9.232;2023-07-31T13:50:52;2.90;;;2.45;;
21202;SDS011;10759;51.982;9.232;2023-07-31T13:53:21;1.50;;;1.40;;
21202;SDS011;10759;51.982;9.232;2023-07-31T13:55:50;1.83;;;1.63;;
21202;SDS011;10759;51.982;9.232;2023-07-31T13:58:18;1.85;;;1.75;;
21202;SDS011;10759;51.982;9.232;2023-07-31T14:00:46;2.00;;;1.90;;
21202;SDS011;10759;51.982;9.232;2023-07-31T14:05:55;2.47;;;2.25;;
21202;SDS011;10759;51.982;9.232;2023-07-31T14:08:24;2.30;;;2.10;;
21202;SDS011;10759;51.982;9.232;2023-07-31T14:10:53;3.03;;;2.17;;
21202;SDS011;10759;51.982;9.232;2023-07-31T14:13:21;3.17;;;1.95;;
21202;SDS011;10759;51.982;9.232;2023-07-31T14:15:49;3.08;;;2.05;;
21202;SDS011;10759;51.982;9.232;2023-07-31T14:18:18;7.53;;;2.80;;
21202;SDS011;10759;51.982;9.232;2023-07-31T14:20:47;2.28;;;2.08;;
21202;SDS011;10759;51.982;9.232;2023-07-31T14:23:15;2.22;;;2.13;;
21202;SDS011;10759;51.982;9.232;2023-07-31T14:25:45;2.30;;;2.10;;
21202;SDS011;10759;51.982;9.232;2023-07-31T14:30:42;2.60;;;2.40;;
21202;SDS011;10759;51.982;9.232;2023-07-31T14:33:10;2.45;;;2.35;;
21202;SDS011;10759;51.982;9.232;2023-07-31T14:35:39;2.83;;;2.17;;
21202;SDS011;10759;51.982;9.232;2023-07-31T14:38:07;2.40;;;2.20;;
21202;SDS011;10759;51.982;9.232;2023-07-31T14:40:35;4.32;;;2.33;;
21202;SDS011;10759;51.982;9.232;2023-07-31T14:43:06;2.50;;;2.27;;
21202;SDS011;10759;51.982;9.232;2023-07-31T14:45:34;2.40;;;2.30;;
21202;SDS011;10759;51.982;9.232;2023-07-31T14:48:03;2.33;;;2.13;;
21202;SDS011;10759;51.982;9.232;2023-07-31T14:50:31;2.40;;;2.20;;
21202;SDS011;10759;51.982;9.232;2023-07-31T14:53:00;2.03;;;1.83;;
21202;SDS011;10759;51.982;9.232;2023-07-31T14:55:28;2.80;;;2.50;;
21202;SDS011;10759;51.982;9.232;2023-07-31T14:57:56;2.05;;;1.95;;
21202;SDS011;10759;51.982;9.232;2023-07-31T15:00:26;2.47;;;2.28;;
21202;SDS011;10759;51.982;9.232;2023-07-31T15:02:54;2.90;;;2.17;;
21202;SDS011;10759;51.982;9.232;2023-07-31T15:05:22;1.90;;;1.80;;
21202;SDS011;10759;51.982;9.232;2023-07-31T15:07:50;2.10;;;2.00;;
21202;SDS011;10759;51.982;9.232;2023-07-31T15:10:19;2.05;;;1.85;;
21202;SDS011;10759;51.982;9.232;2023-07-31T15:12:56;1.73;;;1.63;;
21202;SDS011;10759;51.982;9.232;2023-07-31T15:15:26;1.88;;;1.77;;
21202;SDS011;10759;51.982;9.232;2023-07-31T15:17:57;2.97;;;2.03;;
21202;SDS011;10759;51.982;9.232;2023-07-31T15:23:03;1.58;;;1.48;;
21202;SDS011;10759;51.982;9.232;2023-07-31T15:25:31;1.77;;;1.67;;
21202;SDS011;10759;51.982;9.232;2023-07-31T15:28:00;2.00;;;1.90;;
21202;SDS011;10759;51.982;9.232;2023-07-31T15:30:30;2.47;;;1.50;;
21202;SDS011;10759;51.982;9.232;2023-07-31T15:32:59;2.05;;;1.85;;
21202;SDS011;10759;51.982;9.232;2023-07-31T15:35:28;1.60;;;1.50;;
21202;SDS011;10759;51.982;9.232;2023-07-31T15:37:56;2.45;;;1.55;;
21202;SDS011;10759;51.982;9.232;2023-07-31T15:40:24;2.20;;;1.75;;
21202;SDS011;10759;51.982;9.232;2023-07-31T15:42:52;1.95;;;1.85;;
21202;SDS011;10759;51.982;9.232;2023-07-31T15:45:21;2.50;;;2.35;;
21202;SDS011;10759;51.982;9.232;2023-07-31T15:47:51;1.70;;;1.60;;
21202;SDS011;10759;51.982;9.232;2023-07-31T15:50:21;4.85;;;1.65;;
21202;SDS011;10759;51.982;9.232;2023-07-31T15:52:50;1.70;;;1.60;;
21202;SDS011;10759;51.982;9.232;2023-07-31T15:55:18;1.70;;;1.60;;
21202;SDS011;10759;51.982;9.232;2023-07-31T15:57:50;1.70;;;1.60;;
21202;SDS011;10759;51.982;9.232;2023-07-31T16:00:19;2.28;;;1.70;;